Pacific Breeze — JD3088 — position and weather

sailwx.info

Track history (hours):
 
Tides and Currents Weather Stations Pressure Air Temp Water Temp Dewpoint Dewpoint Depression Visibility Wind Speed Wind Dir Waves Ship Positions

Pacific Breeze

Last reported at 2018-Jun-20 22:28 UTC. Time now 2018-Jun-20 22:39 UTC.
Position N 34°24' E 135°08'.

Length 115 m; draft 5.7 m.

Type: Cargo ship. MMSI: 431000560.

Date/timePositionNaut miles runAvg speedWind from/ knotsBaromVisibWave heightAir tempDewpointWater temp
2018-Jun-20 22:28N 34°24' E 135°08'0 0.0
2018-Jun-20 21:58N 34°24' E 135°08'0 0.1
2018-Jun-20 21:28N 34°24' E 135°08'0 0.1
2018-Jun-20 20:58N 34°24' E 135°08'0 0.2
2018-Jun-20 20:25N 34°24' E 135°08'0 0.1
2018-Jun-20 19:58N 34°24' E 135°08'0 0.1
2018-Jun-20 19:28N 34°24' E 135°08'0 0.1
2018-Jun-20 18:58N 34°24' E 135°08'0 0.1
2018-Jun-20 18:28N 34°24' E 135°08'0 0.0
2018-Jun-20 17:58N 34°24' E 135°08'0 0.0
2018-Jun-20 17:28N 34°24' E 135°08'0 0.0
2018-Jun-20 16:58N 34°24' E 135°08'0 0.0
2018-Jun-20 16:28N 34°24' E 135°08'0 0.0
2018-Jun-20 15:58N 34°24' E 135°08'0 0.0
2018-Jun-20 15:28N 34°24' E 135°08'0 0.0
2018-Jun-20 14:58N 34°24' E 135°08'0 0.2
2018-Jun-20 14:28N 34°24' E 135°08'0 0.0
2018-Jun-20 13:58N 34°24' E 135°08'0 0.1
2018-Jun-20 13:28N 34°24' E 135°08'0 0.0
2018-Jun-20 12:58N 34°24' E 135°08'0 0.0
2018-Jun-20 12:28N 34°24' E 135°08'0 0.0
2018-Jun-20 11:58N 34°24' E 135°08'0 0.0
2018-Jun-20 11:28N 34°24' E 135°08'0 0.0
2018-Jun-20 10:58N 34°24' E 135°08'0 0.0
2018-Jun-20 10:28N 34°24' E 135°08'0 0.0
2018-Jun-20 09:58N 34°24' E 135°08'0 0.1
2018-Jun-20 09:28N 34°24' E 135°08'0 0.1
2018-Jun-20 08:58N 34°24' E 135°08'0 0.0
2018-Jun-20 08:28N 34°24' E 135°08'0 0.0
2018-Jun-20 07:58N 34°24' E 135°08'0 0.2
2018-Jun-20 07:28N 34°24' E 135°08'0 0.0
2018-Jun-20 06:58N 34°24' E 135°08'0 0.0
2018-Jun-20 06:28N 34°24' E 135°08'0 0.0
2018-Jun-20 05:58N 34°24' E 135°08'0 0.0
2018-Jun-20 05:28N 34°24' E 135°08'0 0.0
2018-Jun-20 04:58N 34°24' E 135°08'0 0.0
2018-Jun-20 04:28N 34°24' E 135°08'0 0.0
2018-Jun-20 03:55N 34°24' E 135°08'0 0.0
2018-Jun-20 03:28N 34°24' E 135°08'1 2.5
2018-Jun-20 03:00N 34°25' E 135°09'713.4
2018-Jun-20 02:31N 34°30' E 135°14'612.8
2018-Jun-20 02:00N 34°35' E 135°18'611.9
2018-Jun-20 01:31N 34°39' E 135°24'2 2.4
2018-Jun-20 00:49N 34°39' E 135°26'0 0.1
2018-Jun-20 00:25N 34°39' E 135°26'0 0.0
2018-Jun-19 23:43N 34°39' E 135°26'0 0.0
2018-Jun-19 23:25N 34°39' E 135°26'0 0.1
2018-Jun-19 22:59N 34°39' E 135°26'1 1.7
2018-Jun-19 22:30N 34°39' E 135°25'2 5.0
2018-Jun-19 22:00N 34°38' E 135°23'3 6.0
2018-Jun-19 21:30N 34°36' E 135°20'5 9.5
2018-Jun-19 21:00N 34°33' E 135°16'5 9.4
2018-Jun-19 20:30N 34°29' E 135°12'4 9.1
2018-Jun-19 20:00N 34°26' E 135°08'4 8.8
2018-Jun-19 19:30N 34°23' E 135°04'4 8.7
2018-Jun-19 19:00N 34°20' E 135°00'5 9.2
2018-Jun-19 18:30N 34°15' E 134°59'5 9.5
2018-Jun-19 18:00N 34°11' E 134°60'5 9.4
2018-Jun-19 17:30N 34°06' E 134°60'5 9.4
2018-Jun-19 17:00N 34°01' E 134°59'5 9.5
2018-Jun-19 16:30N 33°57' E 134°59'5 9.7
2018-Jun-19 16:00N 33°52' E 134°59'1 2.8
2018-Jun-19 15:30N 33°50' E 134°60'3 4.7
2018-Jun-19 14:50N 33°53' E 134°59'2 7.0
2018-Jun-19 14:30N 33°52' E 135°01'5 9.7
2018-Jun-19 14:00N 33°48' E 135°05'5 9.5
2018-Jun-19 13:27N 33°44' E 135°09'  
Track history (hours):
 
Tides and Currents Weather Stations Pressure Air Temp Water Temp Dewpoint Dewpoint Depression Visibility Wind Speed Wind Dir Waves Ship Positions

Pacific Breeze

Last reported at 2018-Jun-20 22:28 UTC. Time now 2018-Jun-20 22:39 UTC.
Position N 34°24' E 135°08'.

Length 115 m; draft 5.7 m.

Type: Cargo ship. MMSI: 431000560.

Date/timePositionNaut miles runAvg speedWind from/ knotsBaromVisibWave heightAir tempDewpointWater temp
2018-Jun-20 22:28N 34°24' E 135°08'0 0.0
2018-Jun-20 21:58N 34°24' E 135°08'0 0.1
2018-Jun-20 21:28N 34°24' E 135°08'0 0.1
2018-Jun-20 20:58N 34°24' E 135°08'0 0.2
2018-Jun-20 20:25N 34°24' E 135°08'0 0.1
2018-Jun-20 19:58N 34°24' E 135°08'0 0.1
2018-Jun-20 19:28N 34°24' E 135°08'0 0.1
2018-Jun-20 18:58N 34°24' E 135°08'0 0.1
2018-Jun-20 18:28N 34°24' E 135°08'0 0.0
2018-Jun-20 17:58N 34°24' E 135°08'0 0.0
2018-Jun-20 17:28N 34°24' E 135°08'0 0.0
2018-Jun-20 16:58N 34°24' E 135°08'0 0.0
2018-Jun-20 16:28N 34°24' E 135°08'0 0.0
2018-Jun-20 15:58N 34°24' E 135°08'0 0.0
2018-Jun-20 15:28N 34°24' E 135°08'0 0.0
2018-Jun-20 14:58N 34°24' E 135°08'0 0.2
2018-Jun-20 14:28N 34°24' E 135°08'0 0.0
2018-Jun-20 13:58N 34°24' E 135°08'0 0.1
2018-Jun-20 13:28N 34°24' E 135°08'0 0.0
2018-Jun-20 12:58N 34°24' E 135°08'0 0.0
2018-Jun-20 12:28N 34°24' E 135°08'0 0.0
2018-Jun-20 11:58N 34°24' E 135°08'0 0.0
2018-Jun-20 11:28N 34°24' E 135°08'0 0.0
2018-Jun-20 10:58N 34°24' E 135°08'0 0.0
2018-Jun-20 10:28N 34°24' E 135°08'0 0.0
2018-Jun-20 09:58N 34°24' E 135°08'0 0.1
2018-Jun-20 09:28N 34°24' E 135°08'0 0.1
2018-Jun-20 08:58N 34°24' E 135°08'0 0.0
2018-Jun-20 08:28N 34°24' E 135°08'0 0.0
2018-Jun-20 07:58N 34°24' E 135°08'0 0.2
2018-Jun-20 07:28N 34°24' E 135°08'0 0.0
2018-Jun-20 06:58N 34°24' E 135°08'0 0.0
2018-Jun-20 06:28N 34°24' E 135°08'0 0.0
2018-Jun-20 05:58N 34°24' E 135°08'0 0.0
2018-Jun-20 05:28N 34°24' E 135°08'0 0.0
2018-Jun-20 04:58N 34°24' E 135°08'0 0.0
2018-Jun-20 04:28N 34°24' E 135°08'0 0.0
2018-Jun-20 03:55N 34°24' E 135°08'0 0.0
2018-Jun-20 03:28N 34°24' E 135°08'1 2.5
2018-Jun-20 03:00N 34°25' E 135°09'713.4
2018-Jun-20 02:31N 34°30' E 135°14'612.8
2018-Jun-20 02:00N 34°35' E 135°18'611.9
2018-Jun-20 01:31N 34°39' E 135°24'2 2.4
2018-Jun-20 00:49N 34°39' E 135°26'0 0.1
2018-Jun-20 00:25N 34°39' E 135°26'0 0.0
2018-Jun-19 23:43N 34°39' E 135°26'0 0.0
2018-Jun-19 23:25N 34°39' E 135°26'0 0.1
2018-Jun-19 22:59N 34°39' E 135°26'1 1.7
2018-Jun-19 22:30N 34°39' E 135°25'2 5.0
2018-Jun-19 22:00N 34°38' E 135°23'3 6.0
2018-Jun-19 21:30N 34°36' E 135°20'5 9.5
2018-Jun-19 21:00N 34°33' E 135°16'5 9.4
2018-Jun-19 20:30N 34°29' E 135°12'4 9.1
2018-Jun-19 20:00N 34°26' E 135°08'4 8.8
2018-Jun-19 19:30N 34°23' E 135°04'4 8.7
2018-Jun-19 19:00N 34°20' E 135°00'5 9.2
2018-Jun-19 18:30N 34°15' E 134°59'5 9.5
2018-Jun-19 18:00N 34°11' E 134°60'5 9.4
2018-Jun-19 17:30N 34°06' E 134°60'5 9.4
2018-Jun-19 17:00N 34°01' E 134°59'5 9.5
2018-Jun-19 16:30N 33°57' E 134°59'5 9.7
2018-Jun-19 16:00N 33°52' E 134°59'1 2.8
2018-Jun-19 15:30N 33°50' E 134°60'3 4.7
2018-Jun-19 14:50N 33°53' E 134°59'2 7.0
2018-Jun-19 14:30N 33°52' E 135°01'5 9.7
2018-Jun-19 14:00N 33°48' E 135°05'5 9.5
2018-Jun-19 13:27N 33°44' E 135°09'  

Dump ship's entire track history